Date,TemperatureHighF,TemperatureAvgF,TemperatureLowF,DewpointHighF,DewpointAvgF,DewpointLowF,HumidityHigh,HumidityAvg,HumidityLow,PressureMaxIn,PressureMinIn,WindSpeedMaxMPH,WindSpeedAvgMPH,GustSpeedMaxMPH,PrecipitationSumIn
2013-1-1,17,11,5,10,5,2,86,76,63,30.38,30.27,5,2,11,0.00
2013-1-2,32,20,6,21,12,2,84,72,54,30.34,30.19,5,2,12,0.00
2013-1-3,26,22,13,24,19,9,90,86,81,30.40,30.20,6,4,12,0.00
2013-1-4,32,22,11,24,17,7,89,81,69,30.37,30.26,9,5,21,0.00
2013-1-5,35,29,19,33,27,17,96,90,76,30.35,30.02,7,4,18,0.06
2013-1-6,35,24,16,32,20,14,92,85,78,30.43,30.01,7,3,17,0.00
2013-1-7,41,29,15,28,22,13,93,77,51,30.42,30.19,10,4,22,0.00
2013-1-8,41,35,26,32,29,24,90,80,70,30.24,30.09,7,3,19,0.00
2013-1-9,42,36,28,33,28,24,86,74,55,30.58,30.08,11,5,25,0.00
2013-1-10,44,31,24,38,26,22,97,81,49,30.59,29.96,10,3,20,0.63
2013-1-11,50,46,40,48,45,39,98,96,89,29.95,29.73,7,4,19,0.32
2013-1-12,52,37,24,47,32,21,91,82,74,30.10,29.74,10,5,24,0.00
2013-1-13,24,18,11,21,13,6,92,80,72,30.36,29.99,8,4,17,0.00
2013-1-14,24,15,8,12,8,5,89,76,54,30.59,30.37,4,1,11,0.00
2013-1-15,30,19,9,16,12,7,92,77,53,30.57,30.25,3,1,8,0.00
2013-1-16,35,26,15,31,20,10,91,78,59,30.24,29.94,9,4,21,0.00
2013-1-17,34,24,19,30,13,7,90,64,47,30.52,30.18,8,3,17,0.00
2013-1-18,43,32,17,33,25,14,89,76,65,30.54,29.98,13,5,29,0.00
2013-1-19,46,39,20,37,31,8,80,71,53,30.06,29.80,14,6,36,0.00
2013-1-20,19,13,9,7,3,0,70,63,51,30.43,30.07,9,4,29,0.00
2013-1-21,11,6,1,4,-4,-8,76,64,50,30.43,30.28,8,5,21,0.00
2013-1-22,10,4,-4,-2,-6,-9,79,65,52,30.54,30.43,7,3,16,0.00
2013-1-23,20,14,9,16,6,-2,86,70,60,30.52,30.25,12,4,27,0.00
2013-1-24,19,11,2,8,1,-5,72,62,45,30.79,30.49,8,3,18,0.00
2013-1-25,30,21,16,19,14,6,89,74,57,30.49,30.07,8,4,22,0.00
2013-1-26,28,18,8,15,9,4,87,68,47,30.53,30.32,4,2,10,0.00
2013-1-27,36,29,24,35,24,15,97,83,68,30.47,29.97,8,5,20,0.03
2013-1-28,46,40,36,46,38,35,98,93,80,30.03,29.85,8,4,16,0.20
2013-1-29,61,52,37,58,51,36,98,96,82,29.86,29.50,9,3,20,0.84
2013-1-30,37,30,17,36,28,13,97,94,84,29.75,29.34,9,4,20,0.33
2013-1-31,17,10,1,13,5,-4,90,79,71,30.32,29.75,8,6,22,0.00
2013-2-1,12,3,-5,9,-3,-9,90,77,65,30.51,30.30,7,4,16,0.00
2013-2-2,19,12,6,18,8,3,93,84,68,30.29,30.15,6,2,16,0.06
2013-2-3,21,16,9,17,11,5,92,82,68,30.19,30.09,7,3,16,0.04
2013-2-4,23,17,7,18,14,3,93,86,76,30.13,30.00,7,3,14,0.24
2013-2-5,29,21,7,26,17,3,94,85,72,30.21,29.93,7,2,16,0.00
2013-2-6,38,27,13,32,22,11,92,82,66,30.34,30.18,6,2,15,0.06
2013-2-7,34,32,24,33,31,23,97,95,87,30.19,29.98,5,3,14,0.58
2013-2-8,25,22,18,22,20,16,95,90,85,30.52,30.14,5,2,13,0.07
2013-2-9,30,26,20,27,24,18,94,90,83,30.52,30.17,6,3,14,0.00
2013-2-10,44,37,26,43,35,25,98,93,71,30.17,29.54,13,6,27,0.57
2013-2-11,40,31,26,33,25,21,90,79,74,30.14,29.57,16,10,35,0.00
2013-2-12,30,25,23,23,20,18,93,83,73,30.21,30.01,7,3,15,0.00
2013-2-13,40,32,22,33,28,20,96,85,70,30.01,29.81,5,2,10,0.00
2013-2-14,38,35,31,32,29,24,87,78,61,30.08,29.71,9,4,20,0.00
2013-2-15,31,24,16,26,14,8,84,67,48,30.32,30.08,8,4,21,0.00
2013-2-16,18,13,7,8,5,2,83,70,57,30.33,30.27,6,2,13,0.00
2013-2-17,30,18,4,21,10,0,92,72,51,30.35,30.07,6,2,16,0.00
2013-2-18,50,36,21,44,31,19,96,81,69,30.05,29.55,8,5,22,0.45
2013-2-19,20,12,7,18,7,2,91,82,74,30.34,29.70,9,5,21,0.00
2013-2-20,21,12,5,12,6,0,92,77,67,30.53,30.35,7,2,15,0.00
2013-2-21,27,20,10,24,18,8,94,89,85,30.53,30.09,10,3,24,0.02
2013-2-22,32,27,24,29,25,22,95,91,88,30.08,29.90,11,5,25,0.28
2013-2-23,27,24,20,24,19,16,90,82,72,30.08,29.99,7,5,16,0.00
2013-2-24,39,25,12,23,18,10,93,76,52,30.25,30.08,4,1,7,0.11
2013-2-25,41,31,19,28,24,18,93,77,53,30.27,30.07,5,2,12,0.02
2013-2-26,34,33,30,31,29,26,97,86,73,30.06,29.68,10,5,24,0.19
2013-2-27,33,30,28,30,28,27,96,94,89,29.86,29.67,11,6,17,0.12
2013-2-28,35,32,26,30,28,21,94,84,74,30.21,29.86,9,5,21,0.05
2013-3-1,25,24,20,21,19,16,87,82,77,30.36,30.20,8,5,21,0.00
2013-3-2,27,20,12,16,12,9,89,74,57,30.36,30.29,7,3,14,0.00
2013-3-3,32,20,5,14,10,3,94,68,41,30.29,30.21,4,1,9,0.00
2013-3-4,31,25,18,26,19,10,88,78,67,30.24,30.10,9,4,18,0.00
2013-3-5,32,28,25,30,26,23,96,94,81,30.17,29.93,10,5,20,0.89
2013-3-6,33,28,25,27,24,22,93,85,78,30.43,30.17,6,4,18,0.00
2013-3-7,36,29,23,25,23,20,91,79,63,30.53,30.42,3,1,7,0.10
2013-3-8,39,29,19,28,24,18,94,80,62,30.58,30.39,6,3,15,0.08
2013-3-9,41,38,29,36,33,24,92,82,75,30.39,29.89,10,4,20,0.10
2013-3-10,44,42,39,43,40,36,98,96,86,29.91,29.68,6,3,15,0.77
2013-3-11,41,34,31,41,33,28,98,96,89,29.89,29.65,6,3,15,0.12
2013-3-12,34,29,24,30,24,19,95,84,74,30.14,29.89,9,6,21,0.00
2013-3-13,32,26,20,20,14,9,88,64,40,30.44,30.14,12,5,20,0.00
2013-3-14,34,30,17,30,26,14,95,85,61,30.44,30.19,6,2,13,0.01
2013-3-15,38,33,29,35,31,28,97,93,80,30.19,29.86,7,2,16,0.16
2013-3-16,33,30,26,30,25,22,95,85,72,30.24,29.84,7,3,15,0.00
2013-3-17,35,28,21,24,20,14,84,72,57,30.34,30.09,7,4,17,0.00
2013-3-18,34,28,19,31,25,14,94,86,76,30.08,29.72,13,6,28,0.12
2013-3-19,30,23,13,16,13,8,82,66,50,30.22,29.90,13,7,26,0.00
2013-3-20,22,16,10,10,7,1,77,66,57,30.25,30.17,9,5,20,0.00
2013-3-21,29,18,10,15,9,4,84,68,52,30.21,30.14,7,2,13,0.00
2013-3-22,36,25,11,19,15,9,92,67,43,30.20,30.14,4,1,10,0.01
2013-3-23,40,31,20,27,21,17,88,68,45,30.25,30.14,4,2,13,0.00
2013-3-24,36,31,29,29,26,23,95,81,72,30.16,29.82,10,4,22,0.08
2013-3-25,35,30,27,27,24,21,85,77,69,30.20,29.88,12,5,20,0.00
2013-3-26,41,35,31,27,25,20,81,68,48,30.37,30.20,5,2,13,0.00
2013-3-27,41,35,28,28,24,20,80,64,45,30.43,30.37,5,1,11,0.00
2013-3-28,48,37,26,26,23,20,86,59,37,30.47,30.38,5,1,12,0.00
2013-3-29,53,43,30,28,25,22,74,51,33,30.42,30.32,4,1,9,0.00
2013-3-30,56,45,33,42,33,23,90,64,51,30.33,29.93,8,4,21,0.00
2013-3-31,54,43,34,43,35,21,96,75,48,30.00,29.81,9,5,24,0.01
2013-4-1,38,32,27,21,17,12,67,54,42,30.31,30.00,9,4,19,0.00
2013-4-2,42,32,22,20,16,10,84,54,29,30.43,30.31,7,2,19,0.00
2013-4-3,46,35,21,22,16,11,83,50,26,30.56,30.40,5,1,12,0.00
2013-4-4,57,44,28,38,27,16,71,53,36,30.40,30.07,8,3,17,0.00
2013-4-5,51,42,32,33,28,23,82,58,39,30.32,30.13,10,3,18,0.00
2013-4-6,66,49,35,50,35,23,89,60,36,30.22,29.67,12,6,28,0.15
2013-4-7,61,49,38,49,39,33,88,70,45,30.02,29.70,8,4,22,0.00
2013-4-8,64,51,38,53,46,33,97,83,66,30.03,29.58,10,5,19,0.86
2013-4-9,47,42,39,45,41,37,96,94,90,30.06,29.92,10,4,21,0.28
2013-4-10,40,38,34,39,37,33,96,95,92,30.11,29.93,9,4,21,1.14
2013-4-11,43,40,37,42,38,35,98,96,93,29.95,29.65,13,6,28,0.21
2013-4-12,42,37,35,39,34,30,95,88,77,29.93,29.65,8,5,21,0.01
2013-4-13,43,37,33,31,29,25,84,72,58,30.08,29.93,9,5,19,0.00
2013-4-14,63,47,35,50,37,28,84,69,55,30.09,29.67,11,6,27,0.01
2013-4-15,62,52,40,54,46,37,97,81,43,30.07,29.68,11,4,28,0.25
2013-4-16,56,45,34,39,35,32,95,71,45,30.37,30.04,6,2,13,0.00
2013-4-17,46,42,39,45,38,32,97,86,63,30.38,29.85,10,5,23,2.11
2013-4-18,62,49,38,59,48,32,98,94,81,29.91,29.48,14,5,31,1.65
2013-4-19,39,36,34,32,30,26,85,78,65,30.03,29.53,14,9,30,0.00
2013-4-20,45,36,28,27,21,16,83,57,35,30.50,30.03,7,2,14,0.00
2013-4-21,53,42,31,36,29,23,80,60,45,30.60,30.38,9,6,22,0.00
2013-4-22,66,54,40,42,38,33,78,56,36,30.38,30.10,8,4,19,0.00
2013-4-23,55,44,37,49,41,33,95,89,57,30.11,29.98,7,3,17,0.47
2013-4-24,52,42,35,33,28,24,82,59,34,30.17,30.05,14,4,21,0.00
2013-4-25,50,44,38,37,31,23,87,63,42,30.40,30.12,7,4,17,0.01
2013-4-26,67,53,38,48,38,25,72,58,47,30.40,30.28,11,5,25,0.00
2013-4-27,67,58,45,48,44,41,93,64,42,30.35,30.07,7,2,14,0.00
2013-4-28,68,59,52,53,49,43,80,68,55,30.06,29.88,3,1,9,0.00
2013-4-29,74,63,51,58,53,49,94,73,51,29.96,29.79,9,4,20,0.00
2013-4-30,86,72,60,62,55,49,89,60,30,29.96,29.79,11,6,27,0.00
2013-5-1,84,74,63,58,53,47,72,51,28,30.18,29.96,6,3,16,0.00
2013-5-2,62,50,41,52,43,37,91,79,61,30.32,30.18,7,4,19,0.29
2013-5-3,50,44,38,49,42,37,96,94,90,30.27,30.04,6,3,17,0.32
2013-5-4,70,59,50,56,50,47,94,76,48,30.11,30.02,8,3,19,0.02
2013-5-5,74,61,46,52,48,42,98,66,34,30.12,30.04,8,2,17,0.00
2013-5-6,74,62,49,46,41,35,78,50,28,30.13,30.04,4,2,14,0.00
2013-5-7,80,67,51,47,40,34,72,42,20,30.13,30.03,4,1,8,0.00
2013-5-8,81,68,51,50,45,41,81,47,26,30.10,30.01,3,1,11,0.00
2013-5-9,70,61,48,60,54,46,96,78,52,30.02,29.89,8,2,19,0.78
2013-5-10,49,47,44,46,44,43,96,91,85,30.08,29.88,6,3,17,0.32
2013-5-11,57,48,40,49,37,25,97,69,33,30.15,29.92,9,4,23,0.01
2013-5-12,55,46,37,30,27,23,70,49,29,30.22,30.15,8,3,19,0.00
2013-5-13,65,52,31,39,29,24,90,47,21,30.27,30.03,4,1,13,0.00
2013-5-14,92,73,54,64,49,38,66,46,20,30.02,29.66,5,3,16,0.00
2013-5-15,82,74,63,59,49,40,56,42,23,29.90,29.67,6,3,18,0.00
2013-5-16,85,70,55,52,46,40,76,47,23,30.00,29.89,5,2,13,0.00
2013-5-17,72,64,58,55,47,40,65,55,48,30.10,30.00,8,4,17,0.00
2013-5-18,81,69,53,64,57,46,88,68,49,30.11,29.98,4,2,12,0.00
2013-5-19,88,70,62,65,62,56,95,79,44,30.00,29.77,19,4,40,0.54
2013-5-20,83,74,64,68,61,56,94,65,41,29.81,29.71,8,4,22,0.26
2013-5-21,79,69,62,65,60,57,95,76,48,29.74,29.69,8,4,24,0.00
2013-5-22,73,65,61,63,58,52,93,78,50,29.81,29.67,5,2,15,0.05
2013-5-23,61,54,41,57,48,36,96,81,55,30.38,29.81,7,3,19,0.16
2013-5-24,65,51,34,39,35,33,95,60,34,30.54,30.38,4,2,12,0.00
2013-5-25,57,52,45,42,38,33,72,60,46,30.48,30.37,6,2,12,0.01
2013-5-26,66,54,45,54,44,36,91,70,44,30.38,30.20,6,3,16,0.12
2013-5-27,58,55,50,57,54,48,98,95,90,30.22,29.94,7,4,17,0.06
2013-5-28,77,66,54,72,64,53,99,92,81,29.93,29.75,7,3,19,0.44
2013-5-29,84,73,62,69,65,60,97,79,56,29.99,29.82,5,2,15,0.03
2013-5-30,84,70,62,69,64,60,96,83,57,29.94,29.76,13,4,26,0.41
2013-5-31,75,64,62,67,62,60,97,93,64,29.87,29.75,9,4,21,0.11
2013-6-1,76,69,64,67,63,58,96,84,70,29.77,29.69,6,3,17,0.07
2013-6-2,64,56,48,59,49,44,94,76,63,30.10,29.77,7,3,17,0.00
2013-6-3,72,59,44,50,46,42,98,66,36,30.20,30.09,3,1,9,0.00
2013-6-4,72,62,51,49,45,39,81,55,35,30.24,30.12,5,2,14,0.00
2013-6-5,66,58,53,58,52,46,92,80,62,30.20,30.02,6,2,16,0.30
2013-6-6,64,56,52,57,53,49,96,88,79,30.03,29.95,4,2,9,0.44
2013-6-7,72,60,53,55,49,43,87,68,38,30.05,29.98,4,2,14,0.00
2013-6-8,76,63,46,51,45,40,93,55,30,30.06,30.00,4,1,13,0.00
2013-6-9,80,68,57,63,55,44,92,64,44,30.06,29.84,6,4,17,0.03
2013-6-10,80,70,60,65,62,59,97,76,54,29.92,29.81,3,1,9,0.05
2013-6-11,83,73,59,66,62,57,96,72,48,29.98,29.84,5,1,12,0.00
2013-6-12,86,72,64,73,66,62,94,80,63,29.97,29.64,7,2,15,0.24
2013-6-13,80,69,60,62,58,54,95,69,42,30.10,29.73,7,4,17,0.00
2013-6-14,79,67,52,58,54,50,90,66,43,30.21,30.06,5,2,14,0.00
2013-6-15,82,62,58,70,57,52,95,83,63,30.11,29.89,6,2,15,0.08
2013-6-16,86,76,66,68,60,53,89,61,34,29.98,29.92,6,2,16,0.00
2013-6-17,88,75,61,59,55,51,81,53,29,29.99,29.89,8,2,17,0.00
2013-6-18,75,64,55,59,53,46,84,68,51,30.15,29.98,5,2,14,0.00
2013-6-19,80,66,50,58,50,44,84,59,40,30.21,30.12,5,2,10,0.00
2013-6-20,89,75,58,63,56,43,69,52,38,30.20,30.08,4,2,12,0.00
2013-6-21,77,70,66,68,66,60,96,87,69,30.19,29.83,11,2,18,0.73
2013-6-22,80,72,64,75,68,63,97,89,76,30.17,29.98,8,3,19,2.17
2013-6-23,86,73,67,74,67,65,95,83,58,30.09,29.93,6,3,18,0.06
2013-6-24,82,69,66,71,66,64,96,92,67,30.11,29.89,6,2,16,0.24
2013-6-25,82,74,65,75,70,64,97,87,74,30.03,29.84,8,2,24,1.14
2013-6-26,81,72,65,72,69,64,96,89,69,29.86,29.77,6,2,15,2.74
2013-6-27,88,80,68,73,68,60,97,68,43,29.85,29.75,8,2,22,0.00
2013-6-28,79,71,64,66,62,59,96,74,52,29.78,29.67,7,3,30,0.18
2013-6-29,71,65,61,64,62,57,97,89,66,29.86,29.66,4,2,12,1.13
2013-6-30,79,68,60,62,55,48,86,66,37,30.08,29.87,6,3,20,0.00
2013-7-1,79,68,55,56,51,47,79,57,34,30.15,30.07,6,2,18,0.00
2013-7-2,77,65,54,55,51,41,92,64,30,30.16,30.11,4,2,13,0.00
2013-7-3,73,64,54,63,58,52,95,83,71,30.14,30.09,2,1,6,0.00
2013-7-4,83,72,58,65,61,57,98,72,48,30.16,30.07,4,1,11,0.00
2013-7-5,84,75,63,65,62,59,85,67,47,30.13,30.05,4,2,14,0.00
2013-7-6,86,74,63,68,64,60,92,73,47,30.10,30.01,3,1,10,0.00
2013-7-7,89,79,70,72,69,66,93,73,49,30.05,29.97,4,2,12,0.00
2013-7-8,86,76,70,76,71,68,95,85,71,30.03,29.96,8,4,20,0.53
2013-7-9,84,79,72,76,74,71,97,86,75,30.02,29.90,6,2,17,0.12
2013-7-10,82,77,64,76,67,56,95,74,46,30.06,29.89,10,3,16,0.00
2013-7-11,82,69,58,61,58,54,98,70,39,30.18,30.06,3,1,10,0.00
2013-7-12,85,71,56,57,53,47,90,58,29,30.22,30.13,3,1,9,0.00
2013-7-13,84,79,61,64,60,55,86,52,43,30.22,30.14,6,2,10,0.00
2013-7-14,87,77,65,70,66,60,89,70,50,30.26,30.20,4,2,14,0.00
2013-7-15,93,80,70,75,71,66,88,74,49,30.31,30.24,4,2,11,0.00
2013-7-16,91,82,73,76,74,72,94,76,57,30.33,30.27,3,1,12,0.00
2013-7-17,92,84,76,75,74,72,90,72,52,30.35,30.21,4,1,11,0.00
2013-7-18,92,84,74,76,73,71,92,72,53,30.22,29.98,6,2,15,0.00
2013-7-19,91,84,76,75,72,70,83,69,53,29.97,29.79,8,4,22,0.00
2013-7-20,86,76,64,69,64,61,95,69,45,30.00,29.86,5,2,13,0.00
2013-7-21,84,72,63,70,64,60,91,79,60,30.01,29.90,6,3,19,0.00
2013-7-22,86,75,63,71,66,62,97,75,51,29.94,29.77,6,2,29,0.00
2013-7-23,77,69,59,64,60,54,96,76,48,30.04,29.75,12,3,19,0.02
2013-7-24,75,64,53,56,54,52,97,71,46,30.14,30.05,3,1,11,0.00
2013-7-25,79,68,54,62,57,52,95,70,51,30.17,30.06,3,2,10,0.00
2013-7-26,74,66,58,68,62,57,97,90,72,30.06,29.93,7,2,22,1.42
2013-7-27,63,59,54,57,50,47,96,73,59,30.02,29.95,6,3,16,0.00
2013-7-28,68,59,53,53,50,48,87,74,56,30.10,29.94,4,2,14,0.00
2013-7-29,78,64,51,60,55,50,95,75,51,30.23,30.10,4,1,12,0.00
2013-7-30,71,63,57,64,60,56,97,90,72,30.24,30.14,3,2,11,0.12
2013-7-31,78,68,60,67,64,59,98,87,67,30.14,30.01,3,1,12,0.02
2013-8-1,78,68,59,61,58,54,97,73,44,30.07,29.98,6,1,16,0.02
2013-8-2,82,72,62,68,62,58,96,72,51,30.00,29.91,4,2,13,0.25
2013-8-3,78,69,58,58,54,47,89,62,36,30.19,30.01,5,2,14,0.00
2013-8-4,76,67,54,61,56,52,92,70,43,30.27,30.17,3,1,8,0.00
2013-8-5,72,64,58,65,60,54,94,86,66,30.18,29.93,6,2,16,0.12
2013-8-6,83,72,66,73,69,65,98,90,69,29.96,29.87,3,1,11,1.20
2013-8-7,85,76,67,72,68,62,97,78,52,30.01,29.82,6,2,17,0.00
2013-8-8,77,69,62,63,61,55,97,77,55,30.09,30.01,5,2,14,0.00
2013-8-9,81,70,56,66,60,52,92,71,56,30.11,30.03,4,1,11,0.00
2013-8-10,78,68,57,61,57,52,96,70,42,30.20,30.11,3,1,14,0.00
2013-8-11,78,67,55,68,62,55,98,84,60,30.20,30.08,4,0,9,0.01
2013-8-12,82,73,66,70,65,60,95,78,59,30.09,29.94,5,2,12,0.00
2013-8-13,70,63,54,60,51,46,92,67,44,30.22,30.01,5,2,15,0.00
2013-8-14,74,53,48,55,50,46,97,90,44,30.30,30.20,3,0,9,0.00
2013-8-15,76,64,53,58,54,50,92,71,46,30.24,30.16,2,1,7,0.00
2013-8-16,81,68,53,60,55,52,96,66,38,30.25,30.20,3,1,11,0.00
2013-8-17,82,69,57,60,56,53,91,65,42,30.30,30.22,3,1,10,0.00
2013-8-18,82,69,54,62,57,53,97,69,44,30.28,30.16,3,1,10,0.00
2013-8-19,82,71,58,65,61,56,94,74,53,30.18,30.08,4,1,10,0.00
2013-8-20,84,75,65,68,65,62,92,73,53,30.16,30.07,5,2,13,0.00
2013-8-21,88,78,69,70,67,65,86,70,51,30.11,30.00,6,3,17,0.00
2013-8-22,76,70,64,69,67,63,97,90,78,30.19,30.03,7,1,19,1.09
2013-8-23,81,70,57,63,58,53,97,67,42,30.24,30.16,6,2,17,0.01
2013-8-24,84,72,59,68,63,53,94,74,53,30.31,30.22,4,2,12,0.00
2013-8-25,89,77,67,71,66,59,82,69,44,30.28,30.17,6,3,16,0.00
2013-8-26,89,79,69,74,69,64,85,73,55,30.19,30.03,5,2,17,0.00
2013-8-27,93,83,75,75,72,70,87,71,51,30.04,29.87,7,3,18,0.00
2013-8-28,86,78,70,73,71,67,91,78,64,30.08,29.87,3,1,10,0.00
2013-8-29,86,74,66,71,68,65,98,82,55,30.15,30.02,3,1,12,0.00
2013-8-30,95,78,69,77,71,68,96,82,49,30.03,29.77,6,2,20,0.22
2013-8-31,78,71,65,71,67,64,96,88,77,29.92,29.84,4,1,10,0.00
2013-9-1,86,73,61,73,66,60,98,81,62,29.88,29.77,4,1,10,0.00
2013-9-2,74,66,55,62,58,53,94,78,54,30.07,29.88,5,2,13,0.00
2013-9-3,74,62,49,57,54,48,97,78,49,30.17,30.07,3,1,8,0.00
2013-9-4,83,68,54,65,59,53,97,76,51,30.20,30.12,3,1,10,0.00
2013-9-5,76,68,59,65,59,50,97,75,56,30.31,30.16,6,3,15,0.00
2013-9-6,85,72,58,68,60,50,84,69,54,30.28,30.05,4,2,12,0.00
2013-9-7,89,77,67,71,66,62,89,71,49,30.05,29.92,5,2,17,0.00
2013-9-8,75,70,66,69,66,64,92,87,79,30.07,29.97,5,3,14,0.00
2013-9-9,92,79,67,77,71,65,97,79,59,30.00,29.84,5,3,15,0.00
2013-9-10,94,84,74,70,65,59,71,54,32,30.02,29.90,7,4,19,0.00
2013-9-11,84,76,68,72,67,65,90,75,54,30.09,30.00,5,1,12,0.02
2013-9-12,77,68,58,65,58,48,98,74,41,30.17,30.03,14,3,22,0.01
2013-9-13,67,58,48,53,42,37,84,58,34,30.28,30.17,5,2,15,0.00
2013-9-14,71,57,42,51,46,41,97,68,41,30.27,30.09,4,1,10,0.00
2013-9-15,58,55,52,56,52,46,96,90,64,30.27,30.05,4,1,11,1.06
2013-9-16,67,56,47,54,48,43,96,76,49,30.46,30.28,4,2,14,0.00
2013-9-17,70,58,44,56,51,43,96,80,58,30.41,30.17,5,2,14,0.00
2013-9-18,75,66,58,69,62,54,94,86,71,30.17,29.96,5,2,13,0.16
2013-9-19,91,76,69,74,69,65,96,79,50,29.98,29.79,7,3,20,0.11
2013-9-20,71,64,55,65,58,52,96,79,62,29.91,29.79,5,2,16,0.05
2013-9-21,64,56,45,52,49,43,96,79,55,30.03,29.90,6,2,18,0.00
2013-9-22,68,54,41,49,46,40,98,77,46,30.15,30.03,4,1,11,0.00
2013-9-23,69,57,47,53,49,45,94,77,53,30.19,30.09,4,3,10,0.00
2013-9-24,71,59,49,53,50,46,91,74,46,30.11,29.99,5,3,14,0.00
2013-9-25,72,60,46,56,50,45,97,71,48,30.06,30.00,5,2,13,0.00
2013-9-26,78,62,46,57,51,45,98,72,34,30.14,30.04,4,2,10,0.00
2013-9-27,81,67,54,57,53,49,90,65,37,30.21,30.09,5,2,16,0.00
2013-9-28,81,67,54,66,56,48,95,71,48,30.11,29.92,9,4,25,0.10
2013-9-29,71,58,50,55,48,41,97,72,35,30.14,30.03,3,1,8,0.01
2013-9-30,75,60,44,52,47,43,95,64,34,30.08,29.91,5,2,14,0.00
2013-10-1,83,68,58,64,60,53,95,77,48,30.02,29.92,7,3,19,0.00
2013-10-2,80,66,54,62,51,41,97,62,30,30.16,30.02,5,2,11,0.00
2013-10-3,76,68,60,69,64,49,97,89,65,30.04,29.88,4,2,9,0.21
2013-10-4,71,67,64,69,66,63,97,95,89,30.05,29.92,6,2,17,1.22
2013-10-5,74,68,61,72,66,55,98,93,80,29.98,29.82,6,2,16,0.03
2013-10-6,60,50,44,51,43,39,94,76,54,29.85,29.77,5,2,13,0.00
2013-10-7,69,54,44,49,45,41,95,76,43,30.16,29.84,4,2,14,0.00
2013-10-8,77,60,43,52,46,42,97,67,33,30.25,30.16,4,1,14,0.00
2013-10-9,74,60,49,51,46,39,91,63,28,30.30,30.19,4,1,9,0.00
2013-10-10,76,61,48,54,50,46,94,71,42,30.24,30.10,6,1,11,0.00
2013-10-11,76,64,54,60,55,51,90,74,53,30.12,29.98,7,2,20,0.00
2013-10-12,70,61,46,62,52,41,92,73,42,30.24,29.98,5,2,15,0.01
2013-10-13,63,50,36,43,38,34,96,69,35,30.49,30.24,4,1,12,0.00
2013-10-14,62,50,36,47,42,34,97,75,51,30.50,30.20,5,2,15,0.00
2013-10-15,65,55,47,61,50,42,96,83,72,30.19,29.82,5,3,15,0.37
2013-10-16,51,49,46,48,46,42,95,88,82,30.03,29.90,4,2,13,0.02
2013-10-17,54,47,40,46,44,38,97,91,67,30.01,29.91,3,1,13,0.28
2013-10-18,47,44,38,42,39,36,94,84,73,30.05,29.91,5,1,15,0.00
2013-10-19,52,43,37,41,37,33,93,80,50,30.02,29.85,5,2,17,0.00
2013-10-20,56,39,33,47,37,32,97,92,67,29.95,29.81,5,0,12,0.01
2013-10-21,52,43,32,44,34,24,83,70,51,30.06,29.87,8,3,17,0.00
2013-10-22,40,34,26,35,29,24,96,85,64,30.09,30.02,2,0,5,0.00
2013-10-23,42,35,28,31,28,26,96,77,59,30.13,30.04,4,1,13,0.00
2013-10-24,41,36,29,30,26,22,83,69,52,30.42,30.12,5,2,15,0.00
2013-10-25,51,29,24,32,24,22,94,83,43,30.51,30.11,7,1,22,0.00
2013-10-26,53,45,33,37,30,27,85,58,43,30.17,29.93,9,4,27,0.00
2013-10-27,55,41,27,33,30,25,95,68,42,30.17,30.03,5,1,14,0.00
2013-10-28,48,41,34,41,35,30,91,79,69,30.47,30.14,4,1,16,0.00
2013-10-29,60,46,36,43,38,32,92,76,43,30.46,30.22,6,2,16,0.00
2013-10-30,57,52,48,57,51,42,98,95,80,30.22,29.82,5,2,13,0.44
2013-10-31,62,56,44,61,55,41,98,96,89,29.81,29.33,5,3,16,0.53
2013-11-1,46,44,40,44,41,38,97,90,84,29.84,29.46,6,2,18,0.06
2013-11-2,47,40,33,40,36,32,97,88,65,30.25,29.84,4,1,12,0.02
2013-11-3,52,40,30,40,34,29,98,82,52,30.40,30.25,4,2,13,0.17
2013-11-4,56,49,42,45,40,36,83,74,59,30.32,30.14,9,4,25,0.00
2013-11-5,54,51,49,51,48,45,96,89,80,30.32,29.98,8,3,22,0.12
2013-11-6,56,45,32,55,41,26,96,88,71,30.27,29.83,8,4,27,0.39
2013-11-7,39,34,26,33,29,24,94,84,71,30.35,30.27,5,2,13,0.00
2013-11-8,46,38,24,35,30,23,96,77,57,30.43,29.97,7,3,19,0.00
2013-11-9,56,48,38,42,37,26,77,66,56,30.21,29.90,11,6,30,0.00
2013-11-10,48,40,32,33,30,28,83,68,52,30.44,30.20,8,3,15,0.00
2013-11-11,45,34,20,35,28,16,95,80,63,30.65,30.17,7,4,23,0.05
2013-11-12,30,22,16,20,16,13,88,77,58,30.84,30.66,6,2,13,0.00
2013-11-13,40,29,18,22,18,13,84,64,40,30.71,30.25,9,4,23,0.00
2013-11-14,48,40,32,30,26,20,67,57,47,30.25,30.01,8,4,22,0.00
2013-11-15,54,43,36,36,31,25,86,63,47,30.05,29.98,5,3,12,0.00
2013-11-16,59,49,38,56,47,34,97,93,85,29.99,29.61,11,6,28,0.02
2013-11-17,67,53,40,62,50,35,97,90,80,29.81,29.16,13,6,36,1.11
2013-11-18,40,36,28,35,28,24,86,75,58,30.36,29.83,9,5,23,0.00
2013-11-19,42,31,20,29,25,19,95,80,58,30.48,30.36,4,2,11,0.00
2013-11-20,40,35,30,36,31,27,95,84,67,30.37,30.18,9,4,19,0.12
2013-11-21,45,41,38,41,39,36,96,91,83,30.32,30.19,4,1,11,0.00
2013-11-22,40,33,24,37,28,18,94,81,63,30.59,30.32,8,4,20,0.03
2013-11-23,24,19,12,18,9,4,80,66,49,30.85,30.55,10,5,24,0.00
2013-11-24,26,17,8,11,6,4,87,64,38,30.85,30.47,7,3,18,0.00
2013-11-25,31,27,21,27,21,11,90,79,61,30.46,30.17,8,5,21,0.00
2013-11-26,32,28,13,27,24,6,89,84,57,30.32,30.14,8,2,22,0.00
2013-11-27,25,18,9,14,9,3,81,71,58,30.40,30.31,6,2,16,0.00
2013-11-28,30,24,15,18,15,12,92,70,59,30.62,30.29,5,2,12,0.00
2013-11-29,33,24,13,23,17,11,94,76,54,30.75,30.49,5,2,13,0.00
2013-11-30,49,36,28,34,29,23,93,76,57,30.49,30.13,6,3,15,0.00
2013-12-1,41,34,28,30,28,25,95,81,62,30.23,30.08,3,1,9,0.00
2013-12-2,41,35,29,34,30,27,95,84,65,30.07,29.82,6,3,16,0.03
2013-12-3,44,40,35,44,39,34,98,97,95,29.82,29.75,6,3,15,0.02
2013-12-4,52,46,33,51,45,30,98,97,90,29.81,29.56,10,4,24,0.05
2013-12-5,32,23,16,30,17,10,92,78,69,30.38,29.77,10,6,23,0.00
2013-12-6,18,13,9,10,7,3,82,75,64,30.70,30.37,5,3,12,0.00
2013-12-7,16,9,4,5,3,1,86,76,58,30.85,30.70,4,2,10,0.00
2013-12-8,23,18,9,21,14,4,94,85,68,30.75,30.08,5,2,14,0.19
2013-12-9,22,12,-3,21,8,-6,94,83,72,30.35,30.06,11,5,23,0.00
2013-12-10,20,10,-4,12,4,-8,86,76,62,30.43,30.12,10,5,23,0.00
2013-12-11,18,14,-3,13,8,-8,91,78,53,30.70,30.40,13,3,19,0.00
2013-12-12,17,8,-5,11,2,-9,86,77,67,30.67,30.34,8,3,20,0.00
2013-12-13,28,21,12,26,17,10,93,83,68,30.34,30.23,5,2,13,0.00
2013-12-14,29,25,19,27,23,17,94,90,83,30.23,30.07,6,3,14,0.09
2013-12-15,21,12,9,18,6,1,89,77,66,30.26,30.05,7,4,17,0.00
2013-12-16,16,11,5,14,5,-3,93,77,59,30.29,30.16,4,1,9,0.06
2013-12-17,34,24,15,26,19,14,94,82,60,30.21,30.06,8,5,23,0.01
2013-12-18,34,24,14,27,17,11,88,75,54,30.25,29.92,9,4,24,0.00
2013-12-19,36,32,26,32,29,24,96,88,79,30.03,29.91,6,2,16,0.06
2013-12-20,32,28,25,32,27,23,96,95,95,29.93,29.85,4,2,11,0.05
2013-12-21,32,27,24,31,26,24,97,96,95,29.99,29.73,4,1,9,0.07
2013-12-22,31,26,24,30,25,22,97,95,92,30.23,29.73,6,2,12,0.56
2013-12-23,23,7,-6,22,4,-10,94,86,80,30.60,30.24,6,4,13,0.00
2013-12-24,15,2,-10,12,-6,-92,91,83,73,30.73,30.48,4,2,11,0.00
2013-12-25,24,21,15,22,18,13,94,90,84,30.47,30.22,6,4,15,0.00
2013-12-26,30,22,10,27,18,8,93,87,78,30.39,30.24,5,2,14,0.00
2013-12-27,40,30,17,32,26,15,96,86,71,30.38,30.17,10,3,23,0.15
2013-12-28,45,38,30,35,32,28,94,79,67,30.19,29.88,6,3,19,0.09
2013-12-29,39,24,2,32,19,-4,93,82,73,30.34,29.85,11,5,23,0.00
2013-12-30,6,1,-6,0,-6,-12,86,73,57,30.48,30.34,4,1,11,0.00
2013-12-31,8,4,-3,5,1,-6,89,86,79,30.50,30.35,4,1,7,0.08
2014-1-1,15,9,5,13,6,2,90,87,83,30.45,30.37,0,0,0,0.34
2014-1-2,14,8,-3,6,3,-6,89,81,69,30.58,30.34,7,2,20,0.00